Terminal Aerodrome Forecast
Issued by NWS

Home | Current Version | Previous Version | Text Only | Print | Product List | Glossary On
Versions: 1 2 3 4 5 6 7 8 9 10 11 12 13 14
580
FTUS46 KMTR 251133
TAFSNS
TAF
KSNS 251133Z 2512/2612 VRB06KT P6SM OVC020
     FM251730 27012G18KT P6SM BKN025
     FM252100 31014G21KT P6SM SCT030
     FM260300 28009G16KT P6SM BKN020
     FM260500 25006KT P6SM OVC015=

USA.gov is the U.S. government's official web portal to all federal, state and local government web resources and services.